Time;durP1;ratioP1;P1;durP2;ratioP2;P2;SDS_P1;SDS_P2;PMS_P1;PMS_P2;Temp;Humidity;BMP_temperature;BMP_pressure;BME280_temperature;BME280_humidity;BME280_pressure;Samples;Min_cycle;Max_cycle;Signal;HPM_P1;HPM_P2
2021/11/28 00:02:05;;;;;;;71.15;30.80;;;;;;;;;;6232686;28;20107;-73
2021/11/28 00:05:07;;;;;;;65.72;29.05;;;;;;;;;;6234828;28;20103;-75
2021/11/28 00:11:31;;;;;;;63.75;27.33;;;;;;;;;;6220272;28;20048;-74
2021/11/28 00:14:32;;;;;;;62.42;25.55;;;;;;;;;;6236187;28;20054;-74
2021/11/28 00:17:35;;;;;;;59.80;26.70;;;;;;;;;;6218851;28;20045;-74
2021/11/28 00:20:37;;;;;;;62.20;25.65;;;;;;;;;;6230086;28;20050;-73
2021/11/28 00:23:38;;;;;;;56.55;22.58;;;;;;;;;;6246340;28;20124;-73
2021/11/28 00:26:40;;;;;;;48.55;21.45;;;;;;;;;;6228364;28;20183;-73
2021/11/28 00:29:41;;;;;;;54.13;22.05;;;;;;;;;;6236733;28;20060;-73
2021/11/28 00:32:44;;;;;;;57.47;23.30;;;;;;;;;;6225086;28;20045;-73
2021/11/28 00:35:46;;;;;;;50.80;20.95;;;;;;;;;;6233334;28;20378;-73
2021/11/28 00:38:47;;;;;;;55.63;22.20;;;;;;;;;;6238692;28;20184;-73
2021/11/28 00:41:48;;;;;;;52.17;20.98;;;;;;;;;;6231933;28;20472;-73
2021/11/28 00:44:50;;;;;;;49.38;19.83;;;;;;;;;;6235565;28;20042;-75
2021/11/28 00:47:53;;;;;;;56.90;21.95;;;;;;;;;;6224223;28;20041;-75
2021/11/28 00:51:10;;;;;;;50.08;19.80;;;;;;;;;;6217798;28;20041;-73
2021/11/28 00:54:12;;;;;;;41.95;17.90;;;;;;;;;;6228805;28;20049;-74
2021/11/28 00:57:13;;;;;;;40.88;17.83;;;;;;;;;;6225314;28;20061;-73
2021/11/28 01:00:15;;;;;;;40.72;16.55;;;;;;;;;;6240177;28;20057;-75
2021/11/28 01:03:18;;;;;;;40.47;16.77;;;;;;;;;;6229735;28;20148;-73
2021/11/28 01:06:19;;;;;;;39.30;16.70;;;;;;;;;;6230049;28;20114;-74
2021/11/28 01:09:22;;;;;;;38.67;16.23;;;;;;;;;;6244873;28;20176;-73
2021/11/28 01:12:23;;;;;;;34.50;15.57;;;;;;;;;;6232033;28;20576;-73
2021/11/28 01:15:25;;;;;;;37.97;16.25;;;;;;;;;;6226589;28;20463;-73
2021/11/28 01:18:28;;;;;;;40.60;17.60;;;;;;;;;;6227337;28;20136;-73
2021/11/28 01:21:29;;;;;;;37.75;17.05;;;;;;;;;;6230177;28;20132;-75
2021/11/28 01:24:31;;;;;;;33.17;14.98;;;;;;;;;;6239344;28;20075;-73
2021/11/28 01:27:33;;;;;;;30.52;15.73;;;;;;;;;;6225506;28;20066;-75
2021/11/28 01:30:35;;;;;;;30.35;15.55;;;;;;;;;;6230066;28;20067;-73
2021/11/28 01:33:38;;;;;;;32.03;15.82;;;;;;;;;;6246213;28;20157;-73
2021/11/28 01:36:40;;;;;;;33.83;14.85;;;;;;;;;;6224323;28;20087;-73
2021/11/28 01:39:41;;;;;;;38.58;16.00;;;;;;;;;;6242586;28;20480;-73
2021/11/28 01:42:44;;;;;;;30.13;14.40;;;;;;;;;;6233029;28;20144;-73
2021/11/28 01:45:46;;;;;;;33.63;14.35;;;;;;;;;;6233302;28;20061;-73
2021/11/28 01:48:50;;;;;;;31.02;14.93;;;;;;;;;;6238746;28;20057;-72
2021/11/28 01:51:51;;;;;;;35.30;15.48;;;;;;;;;;6237626;28;20552;-73
2021/11/28 01:54:53;;;;;;;30.25;14.32;;;;;;;;;;6228080;28;20049;-73
2021/11/28 01:57:55;;;;;;;29.65;13.82;;;;;;;;;;6221514;28;20608;-72
2021/11/28 02:00:58;;;;;;;30.83;12.88;;;;;;;;;;6221922;28;20146;-72
2021/11/28 02:04:02;;;;;;;34.33;13.45;;;;;;;;;;6234756;28;20051;-72
2021/11/28 02:07:03;;;;;;;30.30;14.73;;;;;;;;;;6231792;28;20105;-72
2021/11/28 02:10:05;;;;;;;36.95;15.43;;;;;;;;;;6237626;28;20049;-74
2021/11/28 02:13:07;;;;;;;42.33;18.08;;;;;;;;;;6226420;28;20136;-73
2021/11/28 02:16:09;;;;;;;38.67;17.85;;;;;;;;;;6224500;28;20103;-72
2021/11/28 02:19:14;;;;;;;43.40;20.52;;;;;;;;;;6231362;28;20049;-72
2021/11/28 02:22:17;;;;;;;47.67;21.15;;;;;;;;;;6230580;28;20140;-72
2021/11/28 02:25:19;;;;;;;55.10;21.85;;;;;;;;;;6230834;28;20136;-72
2021/11/28 02:28:20;;;;;;;57.08;22.85;;;;;;;;;;6236721;28;20073;-72
2021/11/28 02:31:23;;;;;;;54.85;22.02;;;;;;;;;;6231672;28;20048;-72
2021/11/28 02:34:24;;;;;;;59.05;23.92;;;;;;;;;;6229729;28;20165;-72
2021/11/28 02:37:27;;;;;;;63.15;25.13;;;;;;;;;;6232672;28;20249;-74
2021/11/28 02:40:29;;;;;;;58.03;25.20;;;;;;;;;;6227992;28;20385;-74
2021/11/28 02:43:32;;;;;;;58.95;24.15;;;;;;;;;;6235880;28;20481;-72
2021/11/28 02:46:34;;;;;;;57.50;22.98;;;;;;;;;;6214041;28;20172;-73
2021/11/28 02:49:35;;;;;;;56.08;24.15;;;;;;;;;;6227809;28;20513;-74
2021/11/28 02:52:38;;;;;;;60.35;23.73;;;;;;;;;;6213226;28;20053;-72
2021/11/28 02:55:41;;;;;;;52.85;22.55;;;;;;;;;;6227464;28;20041;-72
2021/11/28 02:58:42;;;;;;;56.05;22.80;;;;;;;;;;6240391;28;20124;-72
2021/11/28 03:01:44;;;;;;;58.40;26.17;;;;;;;;;;6221912;28;20110;-73
2021/11/28 03:04:45;;;;;;;60.03;26.63;;;;;;;;;;6231467;28;20490;-74
2021/11/28 03:07:48;;;;;;;35.15;17.17;;;;;;;;;;6217936;28;20106;-74
2021/11/28 03:10:52;;;;;;;18.27;8.18;;;;;;;;;;6230132;28;20045;-72
2021/11/28 03:13:53;;;;;;;7.30;3.38;;;;;;;;;;6239065;28;20081;-72
2021/11/28 03:16:55;;;;;;;2.30;1.30;;;;;;;;;;6229387;28;20057;-74
2021/11/28 03:19:56;;;;;;;2.63;1.30;;;;;;;;;;6239976;28;20136;-74
2021/11/28 03:22:59;;;;;;;3.83;1.15;;;;;;;;;;6229624;28;20088;-74
2021/11/28 03:26:04;;;;;;;1.27;0.80;;;;;;;;;;6226495;28;20057;-74
2021/11/28 03:29:07;;;;;;;0.85;0.45;;;;;;;;;;6241444;28;20129;-74
2021/11/28 03:32:09;;;;;;;0.60;0.30;;;;;;;;;;6229063;28;20136;-72
2021/11/28 03:35:10;;;;;;;0.65;0.50;;;;;;;;;;6234212;28;20132;-76
2021/11/28 03:38:13;;;;;;;0.93;0.30;;;;;;;;;;6235724;28;20164;-74
2021/11/28 03:41:14;;;;;;;0.63;0.40;;;;;;;;;;6236767;28;20420;-74
2021/11/28 03:44:16;;;;;;;2.20;0.25;;;;;;;;;;6238366;28;20045;-74
2021/11/28 03:47:17;;;;;;;0.85;0.30;;;;;;;;;;6218912;28;20045;-74
2021/11/28 03:50:19;;;;;;;0.52;0.20;;;;;;;;;;6230106;28;20057;-74
2021/11/28 03:53:22;;;;;;;1.38;0.30;;;;;;;;;;6238071;28;20204;-72
2021/11/28 03:56:23;;;;;;;0.50;0.20;;;;;;;;;;6226727;28;20100;-74
2021/11/28 03:59:25;;;;;;;0.38;0.10;;;;;;;;;;6231770;28;20436;-73
2021/11/28 04:02:26;;;;;;;1.30;0.13;;;;;;;;;;6211535;28;20216;-74
2021/11/28 04:05:28;;;;;;;0.40;0.30;;;;;;;;;;6238632;28;20053;-74
2021/11/28 04:08:31;;;;;;;0.22;0.10;;;;;;;;;;6245373;28;20053;-72
2021/11/28 04:11:32;;;;;;;0.30;0.10;;;;;;;;;;6234466;28;20126;-74
2021/11/28 04:14:36;;;;;;;0.50;0.22;;;;;;;;;;6251364;28;20114;-74
2021/11/28 04:17:37;;;;;;;0.38;0.28;;;;;;;;;;6213330;28;20049;-74
2021/11/28 04:20:39;;;;;;;0.30;0.20;;;;;;;;;;6226664;28;20589;-74
2021/11/28 04:23:41;;;;;;;0.60;0.20;;;;;;;;;;6245483;28;20045;-73
2021/11/28 04:26:43;;;;;;;1.08;0.50;;;;;;;;;;6235465;28;20400;-74
2021/11/28 04:29:44;;;;;;;0.93;0.50;;;;;;;;;;6239019;28;20096;-74
2021/11/28 04:32:46;;;;;;;0.68;0.40;;;;;;;;;;6235894;28;20094;-73
2021/11/28 04:35:48;;;;;;;1.48;0.70;;;;;;;;;;6233721;28;20245;-74
2021/11/28 04:38:50;;;;;;;1.75;0.70;;;;;;;;;;6237878;28;20108;-74
2021/11/28 04:41:52;;;;;;;4.53;0.75;;;;;;;;;;6231325;28;20133;-74
2021/11/28 04:44:53;;;;;;;3.00;1.27;;;;;;;;;;6235295;28;20097;-73
2021/11/28 04:47:55;;;;;;;1.55;1.05;;;;;;;;;;6221010;28;20050;-72
2021/11/28 04:50:56;;;;;;;2.03;0.90;;;;;;;;;;6222702;28;20041;-72
2021/11/28 04:54:01;;;;;;;1.65;0.88;;;;;;;;;;6237196;28;20053;-74
2021/11/28 04:57:03;;;;;;;1.27;0.60;;;;;;;;;;6233153;28;20460;-74
2021/11/28 05:00:07;;;;;;;1.27;0.70;;;;;;;;;;6238007;28;20133;-74
2021/11/28 05:03:08;;;;;;;1.75;1.02;;;;;;;;;;6222653;28;20120;-72
2021/11/28 05:06:10;;;;;;;0.95;0.60;;;;;;;;;;6220485;28;20057;-72
2021/11/28 05:09:15;;;;;;;1.77;1.02;;;;;;;;;;6243426;28;20484;-72
2021/11/28 05:12:16;;;;;;;10.48;1.20;;;;;;;;;;6223706;28;20057;-72
2021/11/28 05:15:19;;;;;;;1.13;0.65;;;;;;;;;;6227599;28;20103;-75
2021/11/28 05:18:20;;;;;;;1.35;0.80;;;;;;;;;;6235055;28;20053;-74
2021/11/28 05:21:22;;;;;;;1.60;0.80;;;;;;;;;;6230642;28;20081;-74
2021/11/28 05:24:25;;;;;;;1.92;1.10;;;;;;;;;;6239175;28;20227;-74
2021/11/28 05:27:27;;;;;;;0.80;0.60;;;;;;;;;;6226346;28;20418;-74
2021/11/28 05:30:28;;;;;;;1.10;0.50;;;;;;;;;;6233210;28;20047;-74
2021/11/28 05:33:29;;;;;;;2.80;0.50;;;;;;;;;;6224627;28;20177;-76
2021/11/28 05:36:31;;;;;;;2.67;0.52;;;;;;;;;;6231980;28;20969;-72
2021/11/28 05:39:34;;;;;;;0.30;0.20;;;;;;;;;;6246165;28;20049;-74
2021/11/28 05:42:35;;;;;;;0.40;0.20;;;;;;;;;;6228502;28;20048;-74
2021/11/28 05:45:36;;;;;;;0.47;0.20;;;;;;;;;;6228298;28;20440;-74
2021/11/28 05:48:38;;;;;;;0.10;0.10;;;;;;;;;;6235673;28;20057;-74
2021/11/28 05:51:39;;;;;;;0.70;0.20;;;;;;;;;;6225147;28;20128;-74
2021/11/28 05:54:46;;;;;;;0.47;0.17;;;;;;;;;;6239130;28;20041;-72
2021/11/28 05:57:48;;;;;;;0.43;0.20;;;;;;;;;;6233443;28;20477;-74
2021/11/28 06:00:50;;;;;;;0.43;0.20;;;;;;;;;;6226235;28;20043;-74
2021/11/28 06:03:51;;;;;;;0.70;0.20;;;;;;;;;;6231910;28;20061;-74
2021/11/28 06:06:53;;;;;;;0.20;0.20;;;;;;;;;;6227584;28;20132;-74
2021/11/28 06:09:55;;;;;;;0.40;0.30;;;;;;;;;;6239694;28;20136;-74
2021/11/28 06:12:57;;;;;;;0.28;0.20;;;;;;;;;;6225185;28;20049;-73
2021/11/28 06:16:00;;;;;;;1.23;0.30;;;;;;;;;;6221563;28;20103;-73
2021/11/28 06:19:01;;;;;;;0.38;0.28;;;;;;;;;;6239928;28;20041;-73
2021/11/28 06:22:05;;;;;;;0.20;0.10;;;;;;;;;;6231228;28;20122;-74
2021/11/28 06:25:08;;;;;;;0.27;0.13;;;;;;;;;;6227762;28;20137;-76
2021/11/28 06:28:10;;;;;;;0.43;0.30;;;;;;;;;;6225762;28;20619;-74
2021/11/28 06:31:11;;;;;;;0.60;0.40;;;;;;;;;;6218592;28;20490;-73
2021/11/28 06:34:13;;;;;;;0.50;0.45;;;;;;;;;;6245299;28;20837;-73
2021/11/28 06:37:15;;;;;;;0.55;0.30;;;;;;;;;;6236776;28;20106;-75
2021/11/28 06:40:17;;;;;;;1.00;0.28;;;;;;;;;;6222667;28;20183;-75
2021/11/28 06:43:19;;;;;;;0.20;0.20;;;;;;;;;;6230624;28;20497;-73
2021/11/28 06:46:20;;;;;;;1.05;0.20;;;;;;;;;;6214154;28;20045;-73
2021/11/28 06:49:24;;;;;;;0.88;0.30;;;;;;;;;;6223048;28;20042;-73
2021/11/28 06:52:25;;;;;;;0.75;0.30;;;;;;;;;;6226741;28;20056;-73
2021/11/28 06:55:28;;;;;;;0.82;0.30;;;;;;;;;;6228431;28;20180;-73
2021/11/28 06:58:29;;;;;;;0.82;0.50;;;;;;;;;;6231011;28;20072;-73
2021/11/28 07:01:31;;;;;;;1.35;0.50;;;;;;;;;;6223518;28;20092;-76
2021/11/28 07:04:32;;;;;;;0.82;0.40;;;;;;;;;;6249121;28;20064;-74
2021/11/28 07:07:33;;;;;;;0.40;0.30;;;;;;;;;;6231742;28;20055;-73
2021/11/28 07:10:38;;;;;;;0.40;0.30;;;;;;;;;;6236455;28;20057;-73
2021/11/28 07:13:39;;;;;;;;;;;;;;;;;;6247830;28;20143;-74
2021/11/28 07:16:40;;;;;;;0.73;0.40;;;;;;;;;;6228087;28;19967;-73
2021/11/28 07:19:42;;;;;;;1.05;0.80;;;;;;;;;;6240568;28;20180;-73
2021/11/28 07:22:43;;;;;;;0.55;0.30;;;;;;;;;;6232496;28;20135;-73
2021/11/28 07:25:46;;;;;;;2.45;0.40;;;;;;;;;;6229502;28;20677;-73
2021/11/28 07:28:47;;;;;;;0.68;0.47;;;;;;;;;;6248123;28;20057;-73
2021/11/28 07:31:49;;;;;;;0.65;0.32;;;;;;;;;;6219517;28;20042;-73
2021/11/28 07:34:50;;;;;;;0.55;0.25;;;;;;;;;;6237231;28;20136;-73
2021/11/28 07:37:52;;;;;;;0.57;0.38;;;;;;;;;;6219526;28;20077;-72
2021/11/28 07:40:55;;;;;;;0.50;0.30;;;;;;;;;;6224848;28;20412;-73
2021/11/28 07:43:56;;;;;;;1.33;0.50;;;;;;;;;;6236082;28;20128;-71
2021/11/28 07:46:58;;;;;;;0.80;0.40;;;;;;;;;;6222473;28;20085;-69
2021/11/28 07:50:00;;;;;;;0.98;0.40;;;;;;;;;;6244326;28;20136;-72
2021/11/28 07:53:01;;;;;;;0.70;0.40;;;;;;;;;;6233229;28;20060;-72
2021/11/28 07:56:04;;;;;;;0.68;0.50;;;;;;;;;;6232799;28;20057;-72
2021/11/28 07:59:05;;;;;;;0.40;0.30;;;;;;;;;;6257603;28;20049;-72
2021/11/28 08:02:07;;;;;;;0.52;0.35;;;;;;;;;;6227544;28;20118;-72
2021/11/28 08:05:09;;;;;;;1.02;0.50;;;;;;;;;;6242020;28;20057;-73
2021/11/28 08:08:11;;;;;;;0.95;0.50;;;;;;;;;;6249272;28;20045;-73
2021/11/28 08:11:15;;;;;;;0.60;0.43;;;;;;;;;;6232651;28;20045;-73
2021/11/28 08:14:16;;;;;;;0.90;0.43;;;;;;;;;;6243565;28;20488;-73
2021/11/28 08:17:18;;;;;;;2.05;1.30;;;;;;;;;;6227013;28;20898;-73
2021/11/28 08:20:21;;;;;;;2.83;1.70;;;;;;;;;;6223922;28;20045;-73
2021/11/28 08:23:25;;;;;;;4.05;2.40;;;;;;;;;;6227181;28;20060;-72
2021/11/28 08:26:28;;;;;;;2.70;2.23;;;;;;;;;;6236410;28;20525;-72
2021/11/28 08:29:29;;;;;;;2.73;1.80;;;;;;;;;;6234563;28;20057;-75
2021/11/28 08:32:31;;;;;;;2.70;2.00;;;;;;;;;;6227612;28;20187;-73
2021/11/28 08:35:33;;;;;;;2.60;1.80;;;;;;;;;;6241744;28;20059;-75
2021/11/28 08:38:35;;;;;;;2.75;1.90;;;;;;;;;;6242814;28;20658;-72
2021/11/28 08:41:38;;;;;;;1.85;1.10;;;;;;;;;;6232165;28;20060;-72
2021/11/28 08:44:39;;;;;;;2.25;0.75;;;;;;;;;;6238000;28;20188;-73
2021/11/28 08:47:41;;;;;;;1.05;0.68;;;;;;;;;;6217966;28;20110;-73
2021/11/28 08:50:43;;;;;;;1.17;0.80;;;;;;;;;;6229652;28;20041;-73
2021/11/28 08:53:44;;;;;;;2.03;0.90;;;;;;;;;;6235238;28;20388;-72
2021/11/28 08:56:50;;;;;;;3.15;0.85;;;;;;;;;;6223764;28;20060;-73
2021/11/28 08:59:52;;;;;;;1.23;0.70;;;;;;;;;;6236760;28;20082;-73
2021/11/28 09:02:53;;;;;;;1.15;0.70;;;;;;;;;;6219715;28;20049;-74
2021/11/28 09:05:55;;;;;;;1.35;0.60;;;;;;;;;;6233028;28;20062;-73
2021/11/28 09:08:56;;;;;;;1.05;0.85;;;;;;;;;;6238265;28;20168;-73
2021/11/28 09:11:59;;;;;;;0.80;0.60;;;;;;;;;;6223607;28;20179;-73
2021/11/28 09:15:00;;;;;;;1.90;0.80;;;;;;;;;;6242463;28;20507;-73
2021/11/28 09:18:07;;;;;;;2.28;1.00;;;;;;;;;;6237527;28;20086;-73
2021/11/28 09:21:09;;;;;;;1.60;1.00;;;;;;;;;;6223133;28;20624;-72
2021/11/28 09:24:36;;;;;;;0.82;0.80;;;;;;;;;;6238433;28;20065;-75
2021/11/28 09:27:41;;;;;;;3.28;2.10;;;;;;;;;;6225185;28;20060;-73
2021/11/28 09:30:42;;;;;;;2.45;1.00;;;;;;;;;;6228060;28;20087;-73
2021/11/28 09:33:44;;;;;;;4.13;0.93;;;;;;;;;;6247127;28;20110;-73
2021/11/28 09:36:45;;;;;;;1.10;0.80;;;;;;;;;;6237071;28;20135;-73
2021/11/28 09:39:46;;;;;;;2.42;0.73;;;;;;;;;;6239976;28;20184;-72
2021/11/28 09:42:53;;;;;;;2.80;1.00;;;;;;;;;;6230984;28;20061;-73
2021/11/28 09:45:55;;;;;;;1.10;0.85;;;;;;;;;;6222399;28;20123;-73
2021/11/28 09:48:59;;;;;;;1.92;0.90;;;;;;;;;;6229179;28;20037;-73
2021/11/28 09:52:00;;;;;;;;;;;;;;;;;;6231007;28;20049;-73
2021/11/28 09:55:04;;;;;;;1.92;0.90;;;;;;;;;;6239073;28;19925;-74
2021/11/28 09:58:07;;;;;;;2.50;1.20;;;;;;;;;;6232728;28;20135;-73
2021/11/28 10:01:09;;;;;;;0.80;0.70;;;;;;;;;;6228097;28;20136;-73
2021/11/28 10:04:10;;;;;;;3.25;1.30;;;;;;;;;;6238004;28;20061;-73
2021/11/28 10:07:12;;;;;;;1.63;1.20;;;;;;;;;;6225324;28;20041;-74
2021/11/28 10:10:14;;;;;;;1.42;0.85;;;;;;;;;;6222790;28;20057;-74
2021/11/28 10:13:17;;;;;;;1.70;1.20;;;;;;;;;;6239784;28;20517;-74
2021/11/28 10:16:19;;;;;;;1.55;1.10;;;;;;;;;;6220302;28;20045;-73
2021/11/28 10:19:21;;;;;;;1.42;1.00;;;;;;;;;;6241190;28;20129;-77
2021/11/28 10:22:23;;;;;;;3.22;1.15;;;;;;;;;;6223915;28;20061;-77
2021/11/28 10:25:26;;;;;;;1.63;1.10;;;;;;;;;;6225111;28;20052;-74
2021/11/28 10:28:29;;;;;;;2.13;1.00;;;;;;;;;;6239721;28;20132;-74
2021/11/28 10:31:31;;;;;;;3.90;1.00;;;;;;;;;;6233664;28;21009;-77
2021/11/28 10:34:36;;;;;;;2.38;1.10;;;;;;;;;;6235084;28;20485;-74
2021/11/28 10:37:39;;;;;;;1.77;1.17;;;;;;;;;;6224010;28;20050;-74
2021/11/28 10:40:43;;;;;;;3.90;1.42;;;;;;;;;;6218639;28;20136;-74
2021/11/28 10:43:46;;;;;;;3.90;1.30;;;;;;;;;;6246635;28;20183;-74
2021/11/28 10:46:48;;;;;;;1.63;1.00;;;;;;;;;;6221918;28;20073;-74
2021/11/28 10:49:49;;;;;;;1.95;1.25;;;;;;;;;;6237087;28;20099;-74
2021/11/28 10:52:51;;;;;;;1.90;1.20;;;;;;;;;;6234898;28;20144;-75
2021/11/28 10:55:54;;;;;;;1.77;1.00;;;;;;;;;;6232986;28;20053;-76
2021/11/28 10:59:15;;;;;;;1.23;0.82;;;;;;;;;;6243188;28;20072;-76
2021/11/28 11:02:21;;;;;;;1.50;0.98;;;;;;;;;;6215761;28;20136;-76
2021/11/28 11:05:24;;;;;;;1.92;0.90;;;;;;;;;;6228053;28;20049;-74
2021/11/28 11:08:25;;;;;;;1.98;1.13;;;;;;;;;;6234892;28;21851;-74
2021/11/28 11:11:31;;;;;;;2.83;1.30;;;;;;;;;;6220340;28;20048;-75
2021/11/28 11:14:41;;;;;;;3.40;1.50;;;;;;;;;;6245193;28;20065;-73
2021/11/28 11:17:55;;;;;;;1.80;1.20;;;;;;;;;;6228621;28;20556;-77
2021/11/28 11:21:02;;;;;;;1.90;1.23;;;;;;;;;;6222114;28;20160;-76
2021/11/28 11:24:04;;;;;;;1.75;1.00;;;;;;;;;;6239049;28;20069;-77
2021/11/28 11:27:06;;;;;;;1.70;1.00;;;;;;;;;;6235261;28;20068;-73
2021/11/28 11:30:10;;;;;;;1.67;0.70;;;;;;;;;;6237335;28;20049;-76
2021/11/28 11:33:12;;;;;;;1.40;0.68;;;;;;;;;;6232460;28;20123;-76
2021/11/28 11:36:14;;;;;;;1.60;0.80;;;;;;;;;;6229904;28;20045;-76
2021/11/28 11:39:15;;;;;;;2.03;0.80;;;;;;;;;;6234867;28;20535;-74
2021/11/28 11:42:18;;;;;;;0.80;0.68;;;;;;;;;;6229980;28;20417;-77
2021/11/28 11:45:22;;;;;;;0.88;0.55;;;;;;;;;;6229501;28;20064;-77
2021/11/28 11:48:24;;;;;;;1.98;1.30;;;;;;;;;;6231015;28;20496;-76
2021/11/28 11:51:25;;;;;;;1.42;0.70;;;;;;;;;;6224336;28;20060;-77
2021/11/28 11:54:28;;;;;;;1.23;0.80;;;;;;;;;;6240958;28;20128;-76
2021/11/28 11:57:34;;;;;;;4.85;1.15;;;;;;;;;;6229579;28;20516;-76
2021/11/28 12:00:39;;;;;;;2.95;1.08;;;;;;;;;;6231089;28;20668;-75
2021/11/28 12:03:46;;;;;;;2.42;1.30;;;;;;;;;;6237851;28;20138;-75
2021/11/28 12:06:49;;;;;;;1.55;0.90;;;;;;;;;;6226304;28;20049;-76
2021/11/28 12:09:50;;;;;;;1.55;0.73;;;;;;;;;;6247135;28;20132;-75
2021/11/28 12:12:52;;;;;;;1.20;0.80;;;;;;;;;;6231072;28;20042;-75
2021/11/28 12:15:55;;;;;;;2.00;1.20;;;;;;;;;;6225606;28;20428;-76
2021/11/28 12:18:56;;;;;;;3.42;1.70;;;;;;;;;;6230818;28;20132;-76
2021/11/28 12:21:58;;;;;;;1.67;0.73;;;;;;;;;;6223481;28;20473;-75
2021/11/28 12:25:14;;;;;;;1.83;0.98;;;;;;;;;;6234675;28;20128;-75
2021/11/28 12:28:28;;;;;;;1.00;0.80;;;;;;;;;;6232668;28;20038;-75
2021/11/28 12:31:32;;;;;;;1.77;0.80;;;;;;;;;;6220543;28;20091;-73
2021/11/28 12:34:42;;;;;;;1.17;0.80;;;;;;;;;;6243308;28;20536;-74
2021/11/28 12:37:49;;;;;;;1.30;0.90;;;;;;;;;;6227158;28;20059;-72
2021/11/28 12:40:51;;;;;;;1.83;0.63;;;;;;;;;;6233514;28;20048;-76
2021/11/28 12:44:06;;;;;;;0.95;0.50;;;;;;;;;;6239542;28;20060;-73
2021/11/28 12:47:23;;;;;;;2.05;1.10;;;;;;;;;;6221374;28;20041;-72
2021/11/28 12:50:24;;;;;;;2.20;0.73;;;;;;;;;;6233222;28;20056;-75
2021/11/28 12:53:30;;;;;;;0.80;0.50;;;;;;;;;;6245750;28;21531;-72
2021/11/28 12:56:32;;;;;;;1.15;0.57;;;;;;;;;;6237964;28;20171;-74
2021/11/28 12:59:33;;;;;;;0.80;0.50;;;;;;;;;;6243677;28;20094;-74
2021/11/28 13:02:43;;;;;;;0.70;0.45;;;;;;;;;;6232733;28;20151;-75
2021/11/28 13:05:47;;;;;;;0.77;0.52;;;;;;;;;;6233576;28;20041;-74
2021/11/28 13:08:48;;;;;;;2.80;0.60;;;;;;;;;;6241875;28;20042;-76
2021/11/28 13:11:51;;;;;;;0.50;0.40;;;;;;;;;;6247952;28;20126;-74
2021/11/28 13:14:52;;;;;;;0.57;0.38;;;;;;;;;;6254022;28;20128;-75
2021/11/28 13:17:56;;;;;;;0.73;0.40;;;;;;;;;;6232165;28;20139;-75
2021/11/28 13:20:59;;;;;;;2.80;1.48;;;;;;;;;;6231698;28;20090;-75
2021/11/28 13:24:00;;;;;;;1.17;0.50;;;;;;;;;;6238698;28;20067;-74
2021/11/28 13:27:02;;;;;;;0.75;0.50;;;;;;;;;;6220891;28;20069;-74
2021/11/28 13:30:07;;;;;;;0.90;0.50;;;;;;;;;;6232726;28;20103;-74
2021/11/28 13:33:11;;;;;;;1.05;0.50;;;;;;;;;;6226696;28;20049;-74
2021/11/28 13:36:13;;;;;;;1.13;0.60;;;;;;;;;;6229363;28;20187;-74
2021/11/28 13:39:15;;;;;;;0.70;0.40;;;;;;;;;;6238825;28;20057;-74
2021/11/28 13:42:17;;;;;;;3.08;0.40;;;;;;;;;;6232719;28;20052;-74
2021/11/28 13:45:18;;;;;;;2.05;0.70;;;;;;;;;;6227517;28;20091;-73
2021/11/28 13:48:21;;;;;;;0.63;0.40;;;;;;;;;;6225603;28;20485;-75
2021/11/28 13:51:43;;;;;;;1.00;0.40;;;;;;;;;;6226906;28;20136;-73
2021/11/28 13:54:46;;;;;;;0.82;0.38;;;;;;;;;;6235120;28;20053;-73
2021/11/28 13:57:47;;;;;;;0.63;0.35;;;;;;;;;;6228733;28;20037;-73
2021/11/28 14:00:48;;;;;;;2.25;0.50;;;;;;;;;;6225883;28;20045;-73
2021/11/28 14:03:51;;;;;;;1.77;0.43;;;;;;;;;;6237141;28;20894;-74
2021/11/28 14:06:54;;;;;;;0.63;0.50;;;;;;;;;;6226740;28;20045;-73
2021/11/28 14:09:58;;;;;;;1.53;0.80;;;;;;;;;;6238111;28;20075;-73
2021/11/28 14:13:02;;;;;;;0.90;0.55;;;;;;;;;;6224739;28;20068;-73
2021/11/28 14:16:03;;;;;;;1.20;0.63;;;;;;;;;;6220433;28;20401;-73
2021/11/28 14:19:06;;;;;;;1.35;0.40;;;;;;;;;;6237219;28;20136;-73
2021/11/28 14:22:26;;;;;;;0.77;0.50;;;;;;;;;;6232049;28;20537;-73
2021/11/28 14:25:31;;;;;;;0.82;0.38;;;;;;;;;;6234429;28;20091;-73
2021/11/28 14:28:34;;;;;;;0.70;0.30;;;;;;;;;;6237633;28;20051;-73
2021/11/28 14:31:35;;;;;;;0.45;0.30;;;;;;;;;;6234064;28;20049;-74
2021/11/28 14:34:38;;;;;;;1.08;0.30;;;;;;;;;;6236653;28;20053;-74
2021/11/28 14:37:39;;;;;;;0.55;0.40;;;;;;;;;;6221249;28;20051;-73
2021/11/28 14:40:42;;;;;;;0.75;0.40;;;;;;;;;;6230422;28;20124;-74
2021/11/28 14:43:51;;;;;;;1.00;0.45;;;;;;;;;;6242193;28;20454;-73
2021/11/28 14:46:52;;;;;;;1.52;0.50;;;;;;;;;;6222778;28;20112;-73
2021/11/28 14:49:58;;;;;;;0.65;0.35;;;;;;;;;;6240482;28;20049;-74
2021/11/28 14:53:02;;;;;;;0.60;0.35;;;;;;;;;;6227446;28;20118;-74
2021/11/28 14:56:04;;;;;;;0.60;0.40;;;;;;;;;;6228180;28;20065;-73
2021/11/28 14:59:15;;;;;;;0.85;0.50;;;;;;;;;;6243707;28;20049;-74
2021/11/28 15:02:17;;;;;;;0.43;0.30;;;;;;;;;;6213049;28;20054;-74
2021/11/28 15:05:22;;;;;;;1.45;0.52;;;;;;;;;;6228152;28;20376;-74
2021/11/28 15:08:23;;;;;;;1.73;0.50;;;;;;;;;;6246869;28;20069;-74
2021/11/28 15:11:35;;;;;;;1.33;0.60;;;;;;;;;;6232624;28;20227;-74
2021/11/28 15:14:38;;;;;;;1.42;0.70;;;;;;;;;;6240769;28;20113;-73
2021/11/28 15:17:39;;;;;;;0.80;0.60;;;;;;;;;;6217315;28;20045;-74
2021/11/28 15:20:42;;;;;;;1.15;0.75;;;;;;;;;;6223399;28;20176;-72
2021/11/28 15:23:44;;;;;;;1.42;0.60;;;;;;;;;;6243065;28;20171;-73
2021/11/28 15:26:47;;;;;;;1.10;0.68;;;;;;;;;;6229968;28;20045;-73
2021/11/28 15:29:48;;;;;;;1.23;0.80;;;;;;;;;;6236726;28;20048;-73
2021/11/28 15:32:50;;;;;;;1.70;0.80;;;;;;;;;;6223268;28;20103;-73
2021/11/28 15:35:53;;;;;;;3.65;1.50;;;;;;;;;;6230247;28;20038;-73
2021/11/28 15:38:54;;;;;;;2.67;1.10;;;;;;;;;;6231893;28;20532;-71
2021/11/28 15:41:56;;;;;;;4.82;1.90;;;;;;;;;;6233834;28;20128;-71
2021/11/28 15:44:57;;;;;;;1.42;0.95;;;;;;;;;;6239593;28;20172;-71
2021/11/28 15:47:58;;;;;;;1.50;0.80;;;;;;;;;;6215665;28;20071;-71
2021/11/28 15:51:02;;;;;;;2.13;0.80;;;;;;;;;;6221979;28;20505;-74
2021/11/28 15:54:05;;;;;;;1.48;0.82;;;;;;;;;;6229513;28;20458;-73
2021/11/28 15:57:06;;;;;;;2.13;1.13;;;;;;;;;;6222392;28;20068;-71
2021/11/28 16:00:09;;;;;;;1.00;0.70;;;;;;;;;;6240837;28;20138;-75
2021/11/28 16:03:11;;;;;;;1.33;0.80;;;;;;;;;;6216746;28;20045;-73
2021/11/28 16:06:13;;;;;;;1.20;0.60;;;;;;;;;;6221247;28;20423;-73
2021/11/28 16:09:15;;;;;;;1.88;0.90;;;;;;;;;;6228112;28;20049;-73
2021/11/28 16:12:16;;;;;;;1.52;0.73;;;;;;;;;;6233214;28;20045;-73
2021/11/28 16:15:18;;;;;;;1.25;0.60;;;;;;;;;;6225065;28;20432;-71
2021/11/28 16:18:19;;;;;;;0.73;0.50;;;;;;;;;;6228611;28;20180;-73
2021/11/28 16:21:22;;;;;;;1.67;0.70;;;;;;;;;;6226871;28;20061;-72
2021/11/28 16:24:24;;;;;;;1.30;0.60;;;;;;;;;;6246534;28;20191;-72
2021/11/28 16:27:25;;;;;;;1.20;0.70;;;;;;;;;;6228603;28;20120;-74
2021/11/28 16:30:37;;;;;;;1.67;0.75;;;;;;;;;;6221336;28;20133;-72
2021/11/28 16:33:38;;;;;;;1.73;0.77;;;;;;;;;;6229003;28;20037;-75
2021/11/28 16:36:41;;;;;;;0.90;0.55;;;;;;;;;;6224522;28;20180;-74
2021/11/28 16:39:42;;;;;;;2.30;0.80;;;;;;;;;;6235046;28;20099;-73
2021/11/28 16:42:44;;;;;;;1.27;0.82;;;;;;;;;;6223434;28;20064;-73
2021/11/28 16:45:46;;;;;;;1.75;1.00;;;;;;;;;;6227459;28;20132;-74
2021/11/28 16:48:47;;;;;;;1.38;0.75;;;;;;;;;;6228547;28;20054;-73
2021/11/28 16:51:50;;;;;;;2.22;0.75;;;;;;;;;;6228887;28;20111;-74
2021/11/28 16:54:52;;;;;;;2.10;0.98;;;;;;;;;;6237024;28;20053;-74
2021/11/28 16:57:53;;;;;;;1.02;0.73;;;;;;;;;;6226919;28;20048;-74
2021/11/28 17:00:55;;;;;;;1.73;1.00;;;;;;;;;;6222355;28;20160;-73
2021/11/28 17:03:56;;;;;;;1.58;1.05;;;;;;;;;;6233322;28;20046;-74
2021/11/28 17:06:59;;;;;;;1.08;0.68;;;;;;;;;;6232780;28;20091;-73
2021/11/28 17:10:00;;;;;;;1.52;0.95;;;;;;;;;;6250885;28;20056;-73
2021/11/28 17:13:02;;;;;;;1.63;1.00;;;;;;;;;;6233466;28;20049;-73
2021/11/28 17:16:03;;;;;;;1.80;0.80;;;;;;;;;;6217751;28;20119;-74
2021/11/28 17:19:05;;;;;;;1.50;0.90;;;;;;;;;;6225312;28;20495;-73
2021/11/28 17:22:08;;;;;;;2.03;0.80;;;;;;;;;;6230481;28;20081;-74
2021/11/28 17:25:10;;;;;;;2.53;1.20;;;;;;;;;;6239494;28;20056;-76
2021/11/28 17:28:17;;;;;;;1.95;1.40;;;;;;;;;;6234880;28;20053;-75
2021/11/28 17:31:19;;;;;;;2.53;1.40;;;;;;;;;;6230948;28;20056;-74
2021/11/28 17:34:20;;;;;;;2.85;1.70;;;;;;;;;;6240558;28;20045;-75
2021/11/28 17:37:23;;;;;;;2.63;1.50;;;;;;;;;;6224680;28;20106;-74
2021/11/28 17:40:26;;;;;;;2.20;1.67;;;;;;;;;;6232427;28;20053;-71
2021/11/28 17:43:29;;;;;;;3.42;1.77;;;;;;;;;;6229094;28;20133;-73
2021/11/28 17:46:30;;;;;;;2.55;1.45;;;;;;;;;;6216624;28;20091;-77
2021/11/28 17:49:32;;;;;;;3.20;2.00;;;;;;;;;;6233395;28;20041;-73
2021/11/28 17:52:35;;;;;;;2.97;1.83;;;;;;;;;;6227700;28;20486;-74
2021/11/28 17:55:36;;;;;;;2.67;1.73;;;;;;;;;;6226582;28;20081;-72
2021/11/28 17:58:38;;;;;;;4.75;1.70;;;;;;;;;;6235702;28;20558;-75
2021/11/28 18:01:40;;;;;;;2.83;1.98;;;;;;;;;;6223155;28;20461;-73
2021/11/28 18:04:41;;;;;;;2.70;1.73;;;;;;;;;;6237578;28;20065;-73
2021/11/28 18:07:44;;;;;;;3.63;1.98;;;;;;;;;;6229826;28;20134;-70
2021/11/28 18:10:45;;;;;;;3.13;1.75;;;;;;;;;;6225141;28;20409;-73
2021/11/28 18:13:47;;;;;;;3.20;1.98;;;;;;;;;;6249729;28;20450;-70